sensor_id;sensor_type;location;lat;lon;timestamp;temperature;humidity
11922;DHT22;6021;51.182;3.160;2022-08-11T00:01:54;20.10;99.90
11922;DHT22;6021;51.182;3.160;2022-08-11T00:04:25;20.10;99.90
11922;DHT22;6021;51.182;3.160;2022-08-11T00:06:54;20.10;99.90
11922;DHT22;6021;51.182;3.160;2022-08-11T00:09:36;20.10;99.90
11922;DHT22;6021;51.182;3.160;2022-08-11T00:11:56;20.00;99.90
11922;DHT22;6021;51.182;3.160;2022-08-11T00:14:32;20.00;99.90
11922;DHT22;6021;51.182;3.160;2022-08-11T00:17:05;20.00;99.90
11922;DHT22;6021;51.182;3.160;2022-08-11T00:19:34;20.00;99.90
11922;DHT22;6021;51.182;3.160;2022-08-11T00:22:04;19.90;99.90
11922;DHT22;6021;51.182;3.160;2022-08-11T00:24:35;19.90;99.90
11922;DHT22;6021;51.182;3.160;2022-08-11T00:27:05;19.90;99.90
11922;DHT22;6021;51.182;3.160;2022-08-11T00:29:34;20.00;99.90
11922;DHT22;6021;51.182;3.160;2022-08-11T00:32:04;19.90;99.90
11922;DHT22;6021;51.182;3.160;2022-08-11T00:34:35;19.90;99.90
11922;DHT22;6021;51.182;3.160;2022-08-11T00:37:09;19.90;99.90
11922;DHT22;6021;51.182;3.160;2022-08-11T00:39:43;19.90;99.90
11922;DHT22;6021;51.182;3.160;2022-08-11T00:45:21;19.90;99.90
11922;DHT22;6021;51.182;3.160;2022-08-11T00:47:59;19.90;99.90
11922;DHT22;6021;51.182;3.160;2022-08-11T00:50:47;19.80;99.90
11922;DHT22;6021;51.182;3.160;2022-08-11T01:24:05;19.70;99.90
11922;DHT22;6021;51.182;3.160;2022-08-11T01:26:42;19.70;99.90
11922;DHT22;6021;51.182;3.160;2022-08-11T01:40:42;19.60;99.90
11922;DHT22;6021;51.182;3.160;2022-08-11T01:43:34;19.60;99.90
11922;DHT22;6021;51.182;3.160;2022-08-11T01:46:20;19.60;99.90
11922;DHT22;6021;51.182;3.160;2022-08-11T01:49:02;19.50;99.90
11922;DHT22;6021;51.182;3.160;2022-08-11T01:54:27;19.50;99.90
11922;DHT22;6021;51.182;3.160;2022-08-11T01:57:08;19.40;99.90
11922;DHT22;6021;51.182;3.160;2022-08-11T01:59:42;19.40;99.90
11922;DHT22;6021;51.182;3.160;2022-08-11T02:08:07;19.40;99.90
11922;DHT22;6021;51.182;3.160;2022-08-11T02:10:37;19.40;99.90
11922;DHT22;6021;51.182;3.160;2022-08-11T02:13:52;19.40;99.90
11922;DHT22;6021;51.182;3.160;2022-08-11T02:16:46;19.40;99.90
11922;DHT22;6021;51.182;3.160;2022-08-11T02:19:34;19.40;99.90
11922;DHT22;6021;51.182;3.160;2022-08-11T02:31:53;19.30;99.90
11922;DHT22;6021;51.182;3.160;2022-08-11T02:34:02;19.30;99.90
11922;DHT22;6021;51.182;3.160;2022-08-11T02:36:37;19.30;99.90
11922;DHT22;6021;51.182;3.160;2022-08-11T02:39:23;19.20;99.90
11922;DHT22;6021;51.182;3.160;2022-08-11T02:42:04;19.20;99.90
11922;DHT22;6021;51.182;3.160;2022-08-11T02:45:04;19.20;99.90
11922;DHT22;6021;51.182;3.160;2022-08-11T02:47:55;19.20;99.90
11922;DHT22;6021;51.182;3.160;2022-08-11T02:50:50;19.10;99.90
11922;DHT22;6021;51.182;3.160;2022-08-11T02:53:26;19.10;99.90
11922;DHT22;6021;51.182;3.160;2022-08-11T02:59:06;19.10;99.90
11922;DHT22;6021;51.182;3.160;2022-08-11T03:01:58;19.10;99.90
11922;DHT22;6021;51.182;3.160;2022-08-11T03:04:57;19.10;99.90
11922;DHT22;6021;51.182;3.160;2022-08-11T03:07:27;19.10;99.90
11922;DHT22;6021;51.182;3.160;2022-08-11T03:10:17;19.10;99.90
11922;DHT22;6021;51.182;3.160;2022-08-11T03:12:58;19.10;99.90
11922;DHT22;6021;51.182;3.160;2022-08-11T03:15:51;19.00;99.90
11922;DHT22;6021;51.182;3.160;2022-08-11T03:19:00;19.10;99.90
11922;DHT22;6021;51.182;3.160;2022-08-11T03:21:39;19.00;99.90
11922;DHT22;6021;51.182;3.160;2022-08-11T03:25:07;19.00;99.90
11922;DHT22;6021;51.182;3.160;2022-08-11T03:32:59;19.00;99.90
11922;DHT22;6021;51.182;3.160;2022-08-11T03:38:41;19.00;99.90
11922;DHT22;6021;51.182;3.160;2022-08-11T03:41:31;19.00;99.90
11922;DHT22;6021;51.182;3.160;2022-08-11T03:50:04;18.90;99.90
11922;DHT22;6021;51.182;3.160;2022-08-11T04:04:42;18.90;99.90
11922;DHT22;6021;51.182;3.160;2022-08-11T04:10:30;18.90;99.90
11922;DHT22;6021;51.182;3.160;2022-08-11T04:13:33;18.90;99.90
11922;DHT22;6021;51.182;3.160;2022-08-11T04:33:18;18.70;99.90
11922;DHT22;6021;51.182;3.160;2022-08-11T04:38:46;18.70;99.90
11922;DHT22;6021;51.182;3.160;2022-08-11T04:47:20;18.70;99.90
11922;DHT22;6021;51.182;3.160;2022-08-11T04:49:54;18.70;99.90
11922;DHT22;6021;51.182;3.160;2022-08-11T04:55:44;18.60;99.90
11922;DHT22;6021;51.182;3.160;2022-08-11T05:08:39;18.60;99.90
11922;DHT22;6021;51.182;3.160;2022-08-11T05:13:43;18.60;99.90
11922;DHT22;6021;51.182;3.160;2022-08-11T05:16:28;18.60;99.90
11922;DHT22;6021;51.182;3.160;2022-08-11T05:19:19;18.60;99.90
11922;DHT22;6021;51.182;3.160;2022-08-11T05:22:09;18.60;99.90
11922;DHT22;6021;51.182;3.160;2022-08-11T05:25:09;18.50;99.90
11922;DHT22;6021;51.182;3.160;2022-08-11T05:30:49;18.50;99.90
11922;DHT22;6021;51.182;3.160;2022-08-11T05:33:43;18.50;99.90
11922;DHT22;6021;51.182;3.160;2022-08-11T05:36:48;18.40;99.90
11922;DHT22;6021;51.182;3.160;2022-08-11T05:39:28;18.40;99.90
11922;DHT22;6021;51.182;3.160;2022-08-11T05:42:16;18.40;99.90
11922;DHT22;6021;51.182;3.160;2022-08-11T05:45:10;18.40;99.90
11922;DHT22;6021;51.182;3.160;2022-08-11T05:47:57;18.50;99.90
11922;DHT22;6021;51.182;3.160;2022-08-11T05:50:58;18.50;99.90
11922;DHT22;6021;51.182;3.160;2022-08-11T05:53:56;18.50;99.90
11922;DHT22;6021;51.182;3.160;2022-08-11T05:56:57;18.60;99.90
11922;DHT22;6021;51.182;3.160;2022-08-11T05:59:27;18.70;99.90
11922;DHT22;6021;51.182;3.160;2022-08-11T06:02:06;18.80;99.90
11922;DHT22;6021;51.182;3.160;2022-08-11T06:04:35;18.80;99.90
11922;DHT22;6021;51.182;3.160;2022-08-11T06:07:06;18.90;99.90
11922;DHT22;6021;51.182;3.160;2022-08-11T06:09:47;18.90;99.90
11922;DHT22;6021;51.182;3.160;2022-08-11T06:12:21;19.00;99.90
11922;DHT22;6021;51.182;3.160;2022-08-11T06:14:55;19.00;99.90
11922;DHT22;6021;51.182;3.160;2022-08-11T06:17:31;19.10;99.90
11922;DHT22;6021;51.182;3.160;2022-08-11T06:20:04;19.10;99.90
11922;DHT22;6021;51.182;3.160;2022-08-11T06:22:33;19.20;99.90
11922;DHT22;6021;51.182;3.160;2022-08-11T06:25:02;19.20;95.00
11922;DHT22;6021;51.182;3.160;2022-08-11T06:27:33;19.30;80.80
11922;DHT22;6021;51.182;3.160;2022-08-11T06:30:04;19.30;72.70
11922;DHT22;6021;51.182;3.160;2022-08-11T06:32:35;19.40;66.10
11922;DHT22;6021;51.182;3.160;2022-08-11T06:43:18;19.70;29.60
11922;DHT22;6021;51.182;3.160;2022-08-11T06:46:07;19.70;10.60
11922;DHT22;6021;51.182;3.160;2022-08-11T06:48:33;20.00;1.00
11922;DHT22;6021;51.182;3.160;2022-08-11T06:51:05;20.10;1.00
11922;DHT22;6021;51.182;3.160;2022-08-11T06:53:58;20.10;1.00
11922;DHT22;6021;51.182;3.160;2022-08-11T06:56:21;20.20;1.00
11922;DHT22;6021;51.182;3.160;2022-08-11T06:59:10;20.20;1.00
11922;DHT22;6021;51.182;3.160;2022-08-11T07:02:10;20.30;1.00
11922;DHT22;6021;51.182;3.160;2022-08-11T07:04:48;20.50;1.00
11922;DHT22;6021;51.182;3.160;2022-08-11T07:10:47;20.60;1.00
11922;DHT22;6021;51.182;3.160;2022-08-11T07:13:36;20.70;1.00
11922;DHT22;6021;51.182;3.160;2022-08-11T07:16:27;20.70;1.00
11922;DHT22;6021;51.182;3.160;2022-08-11T07:19:03;20.80;1.00
11922;DHT22;6021;51.182;3.160;2022-08-11T07:21:49;20.80;1.00
11922;DHT22;6021;51.182;3.160;2022-08-11T07:24:38;20.90;1.00
11922;DHT22;6021;51.182;3.160;2022-08-11T07:27:27;21.00;1.00
11922;DHT22;6021;51.182;3.160;2022-08-11T07:30:14;21.00;1.00
11922;DHT22;6021;51.182;3.160;2022-08-11T07:32:52;21.10;1.00
11922;DHT22;6021;51.182;3.160;2022-08-11T07:38:01;21.30;1.00
11922;DHT22;6021;51.182;3.160;2022-08-11T07:40:30;21.40;1.00
11922;DHT22;6021;51.182;3.160;2022-08-11T07:42:59;21.40;1.00
11922;DHT22;6021;51.182;3.160;2022-08-11T07:45:29;21.50;1.00
11922;DHT22;6021;51.182;3.160;2022-08-11T07:48:15;21.90;1.00
11922;DHT22;6021;51.182;3.160;2022-08-11T07:51:03;22.20;1.00
11922;DHT22;6021;51.182;3.160;2022-08-11T07:53:50;22.30;1.00
11922;DHT22;6021;51.182;3.160;2022-08-11T07:56:19;22.40;1.00
11922;DHT22;6021;51.182;3.160;2022-08-11T07:58:47;22.30;1.00
11922;DHT22;6021;51.182;3.160;2022-08-11T08:01:35;22.20;1.00
11922;DHT22;6021;51.182;3.160;2022-08-11T08:04:22;22.20;1.00
11922;DHT22;6021;51.182;3.160;2022-08-11T08:07:08;22.30;1.00
11922;DHT22;6021;51.182;3.160;2022-08-11T08:09:54;22.40;1.00
11922;DHT22;6021;51.182;3.160;2022-08-11T08:12:41;22.40;1.00
11922;DHT22;6021;51.182;3.160;2022-08-11T08:15:27;22.40;1.00
11922;DHT22;6021;51.182;3.160;2022-08-11T08:18:14;22.70;1.00
11922;DHT22;6021;51.182;3.160;2022-08-11T08:20:47;22.90;1.00
11922;DHT22;6021;51.182;3.160;2022-08-11T08:23:17;22.90;1.00
11922;DHT22;6021;51.182;3.160;2022-08-11T08:25:49;22.90;1.00
11922;DHT22;6021;51.182;3.160;2022-08-11T08:28:20;23.00;1.00
11922;DHT22;6021;51.182;3.160;2022-08-11T08:30:49;23.10;1.00
11922;DHT22;6021;51.182;3.160;2022-08-11T08:33:28;23.20;1.00
11922;DHT22;6021;51.182;3.160;2022-08-11T08:35:57;23.40;1.00
11922;DHT22;6021;51.182;3.160;2022-08-11T08:38:47;23.40;1.00
11922;DHT22;6021;51.182;3.160;2022-08-11T08:41:24;23.60;1.00
11922;DHT22;6021;51.182;3.160;2022-08-11T08:43:56;23.80;1.00
11922;DHT22;6021;51.182;3.160;2022-08-11T08:46:32;23.80;1.00
11922;DHT22;6021;51.182;3.160;2022-08-11T08:49:02;23.90;1.00
11922;DHT22;6021;51.182;3.160;2022-08-11T08:51:33;23.90;1.00
11922;DHT22;6021;51.182;3.160;2022-08-11T08:54:21;24.00;1.00
11922;DHT22;6021;51.182;3.160;2022-08-11T08:56:51;24.00;1.00
11922;DHT22;6021;51.182;3.160;2022-08-11T08:59:23;24.00;1.00
11922;DHT22;6021;51.182;3.160;2022-08-11T09:01:59;24.10;1.00
11922;DHT22;6021;51.182;3.160;2022-08-11T09:04:29;24.20;1.00
11922;DHT22;6021;51.182;3.160;2022-08-11T09:07:02;24.30;1.00
11922;DHT22;6021;51.182;3.160;2022-08-11T09:09:29;24.50;1.00
11922;DHT22;6021;51.182;3.160;2022-08-11T09:11:58;24.70;1.00
11922;DHT22;6021;51.182;3.160;2022-08-11T09:14:35;24.80;1.00
11922;DHT22;6021;51.182;3.160;2022-08-11T09:17:23;24.90;1.00
11922;DHT22;6021;51.182;3.160;2022-08-11T09:20:03;25.00;1.00
11922;DHT22;6021;51.182;3.160;2022-08-11T09:22:33;25.10;1.00
11922;DHT22;6021;51.182;3.160;2022-08-11T09:25:21;25.30;1.00
11922;DHT22;6021;51.182;3.160;2022-08-11T09:28:13;25.30;1.00
11922;DHT22;6021;51.182;3.160;2022-08-11T09:30:43;25.40;1.00
11922;DHT22;6021;51.182;3.160;2022-08-11T09:33:15;25.60;1.00
11922;DHT22;6021;51.182;3.160;2022-08-11T09:35:46;25.90;1.00
11922;DHT22;6021;51.182;3.160;2022-08-11T09:38:17;25.80;1.00
11922;DHT22;6021;51.182;3.160;2022-08-11T09:41:06;26.00;1.00
11922;DHT22;6021;51.182;3.160;2022-08-11T09:43:39;26.00;1.00
11922;DHT22;6021;51.182;3.160;2022-08-11T09:46:28;26.10;1.00
11922;DHT22;6021;51.182;3.160;2022-08-11T09:48:58;26.20;1.00
11922;DHT22;6021;51.182;3.160;2022-08-11T09:51:29;26.20;1.00
11922;DHT22;6021;51.182;3.160;2022-08-11T09:54:03;26.30;1.00
11922;DHT22;6021;51.182;3.160;2022-08-11T09:56:34;26.60;1.00
11922;DHT22;6021;51.182;3.160;2022-08-11T09:59:21;26.70;1.00
11922;DHT22;6021;51.182;3.160;2022-08-11T10:01:56;26.90;1.00
11922;DHT22;6021;51.182;3.160;2022-08-11T10:04:34;26.90;1.00
11922;DHT22;6021;51.182;3.160;2022-08-11T10:07:03;26.90;1.00
11922;DHT22;6021;51.182;3.160;2022-08-11T10:12:21;27.10;1.00
11922;DHT22;6021;51.182;3.160;2022-08-11T10:14:56;27.10;1.00
11922;DHT22;6021;51.182;3.160;2022-08-11T10:17:46;27.20;1.00
11922;DHT22;6021;51.182;3.160;2022-08-11T10:20:34;27.20;1.00
11922;DHT22;6021;51.182;3.160;2022-08-11T10:23:04;27.30;1.00
11922;DHT22;6021;51.182;3.160;2022-08-11T10:25:50;27.50;1.00
11922;DHT22;6021;51.182;3.160;2022-08-11T10:28:37;27.60;1.00
11922;DHT22;6021;51.182;3.160;2022-08-11T10:31:06;27.50;1.00
11922;DHT22;6021;51.182;3.160;2022-08-11T10:33:53;27.70;1.00
11922;DHT22;6021;51.182;3.160;2022-08-11T10:36:43;27.70;1.00
11922;DHT22;6021;51.182;3.160;2022-08-11T10:39:14;27.80;1.00
11922;DHT22;6021;51.182;3.160;2022-08-11T10:41:46;27.80;1.00
11922;DHT22;6021;51.182;3.160;2022-08-11T10:44:41;27.90;1.00
11922;DHT22;6021;51.182;3.160;2022-08-11T10:47:06;27.90;1.00
11922;DHT22;6021;51.182;3.160;2022-08-11T10:49:55;27.90;1.00
11922;DHT22;6021;51.182;3.160;2022-08-11T10:52:44;28.00;1.00
11922;DHT22;6021;51.182;3.160;2022-08-11T10:55:31;28.20;1.00
11922;DHT22;6021;51.182;3.160;2022-08-11T10:58:20;28.20;1.00
11922;DHT22;6021;51.182;3.160;2022-08-11T11:01:07;28.30;1.00
11922;DHT22;6021;51.182;3.160;2022-08-11T11:03:37;28.40;1.00
11922;DHT22;6021;51.182;3.160;2022-08-11T11:06:08;28.40;1.00
11922;DHT22;6021;51.182;3.160;2022-08-11T11:08:41;28.50;1.00
11922;DHT22;6021;51.182;3.160;2022-08-11T11:11:24;28.70;1.00
11922;DHT22;6021;51.182;3.160;2022-08-11T11:13:54;28.70;1.00
11922;DHT22;6021;51.182;3.160;2022-08-11T11:16:41;28.70;1.00
11922;DHT22;6021;51.182;3.160;2022-08-11T11:19:27;28.70;1.00
11922;DHT22;6021;51.182;3.160;2022-08-11T11:21:57;28.70;1.00
11922;DHT22;6021;51.182;3.160;2022-08-11T11:24:42;28.90;1.00
11922;DHT22;6021;51.182;3.160;2022-08-11T11:30:05;28.90;1.00
11922;DHT22;6021;51.182;3.160;2022-08-11T11:32:56;28.90;1.00
11922;DHT22;6021;51.182;3.160;2022-08-11T11:38:15;28.90;1.00
11922;DHT22;6021;51.182;3.160;2022-08-11T11:40:46;29.10;1.00
11922;DHT22;6021;51.182;3.160;2022-08-11T11:43:18;29.10;1.00
11922;DHT22;6021;51.182;3.160;2022-08-11T11:45:52;29.10;1.00
11922;DHT22;6021;51.182;3.160;2022-08-11T11:48:20;29.00;1.00
11922;DHT22;6021;51.182;3.160;2022-08-11T11:50:49;29.00;1.00
11922;DHT22;6021;51.182;3.160;2022-08-11T11:53:18;28.90;1.00
11922;DHT22;6021;51.182;3.160;2022-08-11T11:55:49;29.20;1.00
11922;DHT22;6021;51.182;3.160;2022-08-11T11:58:18;29.10;1.00
11922;DHT22;6021;51.182;3.160;2022-08-11T12:01:07;29.30;1.00
11922;DHT22;6021;51.182;3.160;2022-08-11T12:03:48;29.30;1.00
11922;DHT22;6021;51.182;3.160;2022-08-11T12:06:21;29.20;1.00
11922;DHT22;6021;51.182;3.160;2022-08-11T12:08:54;29.20;1.00
11922;DHT22;6021;51.182;3.160;2022-08-11T12:11:24;29.30;1.00
11922;DHT22;6021;51.182;3.160;2022-08-11T12:14:11;29.40;1.00
11922;DHT22;6021;51.182;3.160;2022-08-11T12:16:43;29.30;1.00
11922;DHT22;6021;51.182;3.160;2022-08-11T12:19:26;29.40;1.00
11922;DHT22;6021;51.182;3.160;2022-08-11T12:21:56;29.30;1.00
11922;DHT22;6021;51.182;3.160;2022-08-11T12:24:46;29.30;1.00
11922;DHT22;6021;51.182;3.160;2022-08-11T12:27:34;29.40;1.00
11922;DHT22;6021;51.182;3.160;2022-08-11T12:30:04;29.50;1.00
11922;DHT22;6021;51.182;3.160;2022-08-11T12:32:36;29.50;1.00
11922;DHT22;6021;51.182;3.160;2022-08-11T12:35:06;29.50;1.00
11922;DHT22;6021;51.182;3.160;2022-08-11T12:37:40;29.50;1.00
11922;DHT22;6021;51.182;3.160;2022-08-11T12:40:21;29.60;1.00
11922;DHT22;6021;51.182;3.160;2022-08-11T12:43:06;29.50;1.00
11922;DHT22;6021;51.182;3.160;2022-08-11T12:45:54;29.60;1.00
11922;DHT22;6021;51.182;3.160;2022-08-11T12:48:30;29.60;1.00
11922;DHT22;6021;51.182;3.160;2022-08-11T12:51:24;29.50;1.00
11922;DHT22;6021;51.182;3.160;2022-08-11T12:54:16;29.50;1.00
11922;DHT22;6021;51.182;3.160;2022-08-11T12:56:49;29.70;1.00
11922;DHT22;6021;51.182;3.160;2022-08-11T12:59:34;29.60;1.00
11922;DHT22;6021;51.182;3.160;2022-08-11T13:02:24;29.70;1.00
11922;DHT22;6021;51.182;3.160;2022-08-11T13:05:13;29.70;1.00
11922;DHT22;6021;51.182;3.160;2022-08-11T13:07:45;29.80;1.00
11922;DHT22;6021;51.182;3.160;2022-08-11T13:10:16;29.70;1.00
11922;DHT22;6021;51.182;3.160;2022-08-11T13:13:03;29.70;1.00
11922;DHT22;6021;51.182;3.160;2022-08-11T13:15:33;29.70;1.00
11922;DHT22;6021;51.182;3.160;2022-08-11T13:18:03;29.70;1.00
11922;DHT22;6021;51.182;3.160;2022-08-11T13:20:34;29.60;1.00
11922;DHT22;6021;51.182;3.160;2022-08-11T13:23:03;29.70;1.00
11922;DHT22;6021;51.182;3.160;2022-08-11T13:25:34;29.60;1.00
11922;DHT22;6021;51.182;3.160;2022-08-11T13:28:08;29.60;1.00
11922;DHT22;6021;51.182;3.160;2022-08-11T13:30:40;29.60;1.00
11922;DHT22;6021;51.182;3.160;2022-08-11T13:33:56;29.60;1.00
11922;DHT22;6021;51.182;3.160;2022-08-11T13:36:04;29.60;1.00
11922;DHT22;6021;51.182;3.160;2022-08-11T13:38:34;29.60;1.00
11922;DHT22;6021;51.182;3.160;2022-08-11T13:41:02;29.70;1.00
11922;DHT22;6021;51.182;3.160;2022-08-11T13:43:33;29.60;1.00
11922;DHT22;6021;51.182;3.160;2022-08-11T13:46:05;29.70;1.00
11922;DHT22;6021;51.182;3.160;2022-08-11T13:48:44;29.70;1.00
11922;DHT22;6021;51.182;3.160;2022-08-11T13:51:13;29.80;1.00
11922;DHT22;6021;51.182;3.160;2022-08-11T13:54:11;30.00;1.00
11922;DHT22;6021;51.182;3.160;2022-08-11T13:56:42;29.90;1.00
11922;DHT22;6021;51.182;3.160;2022-08-11T13:59:18;29.90;1.00
11922;DHT22;6021;51.182;3.160;2022-08-11T14:01:55;30.10;1.00
11922;DHT22;6021;51.182;3.160;2022-08-11T14:04:28;29.90;1.00
11922;DHT22;6021;51.182;3.160;2022-08-11T14:09:55;29.90;1.00
11922;DHT22;6021;51.182;3.160;2022-08-11T14:12:33;29.90;1.00
11922;DHT22;6021;51.182;3.160;2022-08-11T14:15:33;29.90;1.00
11922;DHT22;6021;51.182;3.160;2022-08-11T14:18:47;30.00;1.00
11922;DHT22;6021;51.182;3.160;2022-08-11T14:20:39;29.90;1.00
11922;DHT22;6021;51.182;3.160;2022-08-11T14:23:40;30.00;1.00
11922;DHT22;6021;51.182;3.160;2022-08-11T14:26:10;30.00;1.00
11922;DHT22;6021;51.182;3.160;2022-08-11T14:32:03;29.90;1.00
11922;DHT22;6021;51.182;3.160;2022-08-11T14:34:32;29.90;1.00
11922;DHT22;6021;51.182;3.160;2022-08-11T14:37:11;29.90;1.00
11922;DHT22;6021;51.182;3.160;2022-08-11T14:39:45;30.00;1.00
11922;DHT22;6021;51.182;3.160;2022-08-11T14:42:17;30.00;1.00
11922;DHT22;6021;51.182;3.160;2022-08-11T14:45:08;30.10;1.00
11922;DHT22;6021;51.182;3.160;2022-08-11T14:47:59;30.10;1.00
11922;DHT22;6021;51.182;3.160;2022-08-11T14:50:31;30.20;1.00
11922;DHT22;6021;51.182;3.160;2022-08-11T14:53:02;30.00;1.00
11922;DHT22;6021;51.182;3.160;2022-08-11T14:55:35;29.90;1.00
11922;DHT22;6021;51.182;3.160;2022-08-11T14:58:24;29.90;1.00
11922;DHT22;6021;51.182;3.160;2022-08-11T15:00:57;29.90;1.00
11922;DHT22;6021;51.182;3.160;2022-08-11T15:03:32;29.70;1.00
11922;DHT22;6021;51.182;3.160;2022-08-11T15:06:01;29.70;1.00
11922;DHT22;6021;51.182;3.160;2022-08-11T15:08:37;29.70;1.00
11922;DHT22;6021;51.182;3.160;2022-08-11T15:11:27;29.60;1.00
11922;DHT22;6021;51.182;3.160;2022-08-11T15:14:13;29.60;1.00
11922;DHT22;6021;51.182;3.160;2022-08-11T15:16:44;29.40;1.00
11922;DHT22;6021;51.182;3.160;2022-08-11T15:19:31;29.40;1.00
11922;DHT22;6021;51.182;3.160;2022-08-11T15:22:02;29.30;1.00
11922;DHT22;6021;51.182;3.160;2022-08-11T15:24:49;29.20;1.00
11922;DHT22;6021;51.182;3.160;2022-08-11T15:27:20;29.20;1.00
11922;DHT22;6021;51.182;3.160;2022-08-11T15:30:08;29.20;1.00
11922;DHT22;6021;51.182;3.160;2022-08-11T15:32:55;29.10;1.00
11922;DHT22;6021;51.182;3.160;2022-08-11T15:35:42;29.00;1.00
11922;DHT22;6021;51.182;3.160;2022-08-11T15:38:29;28.90;1.00
11922;DHT22;6021;51.182;3.160;2022-08-11T15:41:00;28.90;1.00
11922;DHT22;6021;51.182;3.160;2022-08-11T15:43:53;28.90;1.00
11922;DHT22;6021;51.182;3.160;2022-08-11T15:46:50;28.90;1.00
11922;DHT22;6021;51.182;3.160;2022-08-11T15:49:23;28.80;1.00
11922;DHT22;6021;51.182;3.160;2022-08-11T15:52:09;28.90;1.00
11922;DHT22;6021;51.182;3.160;2022-08-11T15:54:40;28.90;1.00
11922;DHT22;6021;51.182;3.160;2022-08-11T15:57:09;28.70;1.00
11922;DHT22;6021;51.182;3.160;2022-08-11T15:59:40;28.70;1.00
11922;DHT22;6021;51.182;3.160;2022-08-11T16:02:28;28.70;1.00
11922;DHT22;6021;51.182;3.160;2022-08-11T16:05:19;28.70;1.00
11922;DHT22;6021;51.182;3.160;2022-08-11T16:07:53;28.60;1.00
11922;DHT22;6021;51.182;3.160;2022-08-11T16:10:22;28.50;1.00
11922;DHT22;6021;51.182;3.160;2022-08-11T16:12:59;28.50;1.00
11922;DHT22;6021;51.182;3.160;2022-08-11T16:15:53;28.50;1.00
11922;DHT22;6021;51.182;3.160;2022-08-11T16:18:56;28.50;1.00
11922;DHT22;6021;51.182;3.160;2022-08-11T16:21:33;28.40;1.00
11922;DHT22;6021;51.182;3.160;2022-08-11T16:24:07;28.40;1.00
11922;DHT22;6021;51.182;3.160;2022-08-11T16:26:40;28.40;1.00
11922;DHT22;6021;51.182;3.160;2022-08-11T16:29:10;28.40;1.00
11922;DHT22;6021;51.182;3.160;2022-08-11T16:31:40;28.30;1.00
11922;DHT22;6021;51.182;3.160;2022-08-11T16:34:09;28.30;1.00
11922;DHT22;6021;51.182;3.160;2022-08-11T16:36:42;28.40;1.00
11922;DHT22;6021;51.182;3.160;2022-08-11T16:39:30;28.40;1.00
11922;DHT22;6021;51.182;3.160;2022-08-11T16:41:58;28.30;1.00
11922;DHT22;6021;51.182;3.160;2022-08-11T16:44:46;28.20;1.00
11922;DHT22;6021;51.182;3.160;2022-08-11T16:47:33;28.30;1.00
11922;DHT22;6021;51.182;3.160;2022-08-11T16:50:02;28.10;1.00
11922;DHT22;6021;51.182;3.160;2022-08-11T16:52:31;28.20;1.00
11922;DHT22;6021;51.182;3.160;2022-08-11T16:55:00;28.00;1.00
11922;DHT22;6021;51.182;3.160;2022-08-11T16:57:30;28.00;1.00
11922;DHT22;6021;51.182;3.160;2022-08-11T17:00:18;27.80;1.00
11922;DHT22;6021;51.182;3.160;2022-08-11T17:02:51;27.80;1.00
11922;DHT22;6021;51.182;3.160;2022-08-11T17:05:48;27.80;1.00
11922;DHT22;6021;51.182;3.160;2022-08-11T17:08:42;27.70;1.00
11922;DHT22;6021;51.182;3.160;2022-08-11T17:11:31;27.70;1.00
11922;DHT22;6021;51.182;3.160;2022-08-11T17:14:32;27.70;1.00
11922;DHT22;6021;51.182;3.160;2022-08-11T17:16:56;27.70;1.00
11922;DHT22;6021;51.182;3.160;2022-08-11T17:19:29;27.60;1.00
11922;DHT22;6021;51.182;3.160;2022-08-11T17:21:59;27.70;1.00
11922;DHT22;6021;51.182;3.160;2022-08-11T17:24:48;27.60;1.00
11922;DHT22;6021;51.182;3.160;2022-08-11T17:27:19;27.40;1.00
11922;DHT22;6021;51.182;3.160;2022-08-11T17:29:57;27.30;1.00
11922;DHT22;6021;51.182;3.160;2022-08-11T17:32:32;27.20;1.00
11922;DHT22;6021;51.182;3.160;2022-08-11T17:35:20;27.10;1.00
11922;DHT22;6021;51.182;3.160;2022-08-11T17:38:15;27.10;1.00
11922;DHT22;6021;51.182;3.160;2022-08-11T17:40:54;27.10;1.00
11922;DHT22;6021;51.182;3.160;2022-08-11T17:43:37;27.00;1.00
11922;DHT22;6021;51.182;3.160;2022-08-11T17:46:29;26.90;1.00
11922;DHT22;6021;51.182;3.160;2022-08-11T17:49:16;26.80;1.00
11922;DHT22;6021;51.182;3.160;2022-08-11T17:51:47;26.70;1.00
11922;DHT22;6021;51.182;3.160;2022-08-11T17:54:36;26.70;1.00
11922;DHT22;6021;51.182;3.160;2022-08-11T17:57:23;26.70;1.00
11922;DHT22;6021;51.182;3.160;2022-08-11T18:00:12;26.70;1.00
11922;DHT22;6021;51.182;3.160;2022-08-11T18:02:43;26.60;1.00
11922;DHT22;6021;51.182;3.160;2022-08-11T18:05:36;26.50;1.00
11922;DHT22;6021;51.182;3.160;2022-08-11T18:08:04;26.40;1.00
11922;DHT22;6021;51.182;3.160;2022-08-11T18:10:51;26.30;1.00
11922;DHT22;6021;51.182;3.160;2022-08-11T18:13:39;26.20;1.00
11922;DHT22;6021;51.182;3.160;2022-08-11T18:16:27;26.10;1.00
11922;DHT22;6021;51.182;3.160;2022-08-11T18:19:14;26.00;1.00
11922;DHT22;6021;51.182;3.160;2022-08-11T18:22:08;26.00;1.00
11922;DHT22;6021;51.182;3.160;2022-08-11T18:25:05;25.90;1.00
11922;DHT22;6021;51.182;3.160;2022-08-11T18:27:48;25.80;1.00
11922;DHT22;6021;51.182;3.160;2022-08-11T18:30:38;25.80;1.00
11922;DHT22;6021;51.182;3.160;2022-08-11T18:33:27;25.70;1.00
11922;DHT22;6021;51.182;3.160;2022-08-11T18:36:17;25.70;1.00
11922;DHT22;6021;51.182;3.160;2022-08-11T18:39:05;25.60;1.00
11922;DHT22;6021;51.182;3.160;2022-08-11T18:41:55;25.50;1.00
11922;DHT22;6021;51.182;3.160;2022-08-11T18:44:42;25.40;1.00
11922;DHT22;6021;51.182;3.160;2022-08-11T18:47:29;25.40;1.00
11922;DHT22;6021;51.182;3.160;2022-08-11T18:50:17;25.30;1.00
11922;DHT22;6021;51.182;3.160;2022-08-11T18:53:05;25.20;1.00
11922;DHT22;6021;51.182;3.160;2022-08-11T18:55:52;25.20;1.00
11922;DHT22;6021;51.182;3.160;2022-08-11T18:58:40;25.10;1.00
11922;DHT22;6021;51.182;3.160;2022-08-11T19:01:28;25.10;1.00
11922;DHT22;6021;51.182;3.160;2022-08-11T19:04:17;25.00;1.00
11922;DHT22;6021;51.182;3.160;2022-08-11T19:07:05;24.90;1.00
11922;DHT22;6021;51.182;3.160;2022-08-11T19:09:53;24.80;1.00
11922;DHT22;6021;51.182;3.160;2022-08-11T19:12:42;24.80;1.00
11922;DHT22;6021;51.182;3.160;2022-08-11T19:15:30;24.80;1.00
11922;DHT22;6021;51.182;3.160;2022-08-11T19:18:20;24.70;1.00
11922;DHT22;6021;51.182;3.160;2022-08-11T19:21:08;24.60;1.00
11922;DHT22;6021;51.182;3.160;2022-08-11T19:23:59;24.50;1.00
11922;DHT22;6021;51.182;3.160;2022-08-11T19:26:46;24.40;1.00
11922;DHT22;6021;51.182;3.160;2022-08-11T19:29:34;24.40;1.00
11922;DHT22;6021;51.182;3.160;2022-08-11T19:32:21;24.30;1.00
11922;DHT22;6021;51.182;3.160;2022-08-11T19:35:09;24.20;1.00
11922;DHT22;6021;51.182;3.160;2022-08-11T19:37:57;24.20;1.00
11922;DHT22;6021;51.182;3.160;2022-08-11T19:40:45;24.10;1.00
11922;DHT22;6021;51.182;3.160;2022-08-11T19:43:32;24.10;1.00
11922;DHT22;6021;51.182;3.160;2022-08-11T19:46:21;24.00;1.00
11922;DHT22;6021;51.182;3.160;2022-08-11T19:49:09;23.90;1.00
11922;DHT22;6021;51.182;3.160;2022-08-11T19:51:57;23.90;1.00
11922;DHT22;6021;51.182;3.160;2022-08-11T19:54:44;23.90;1.00
11922;DHT22;6021;51.182;3.160;2022-08-11T19:57:31;23.90;1.00
11922;DHT22;6021;51.182;3.160;2022-08-11T20:00:20;23.80;1.00
11922;DHT22;6021;51.182;3.160;2022-08-11T20:03:09;23.80;1.00
11922;DHT22;6021;51.182;3.160;2022-08-11T20:06:01;23.70;1.00
11922;DHT22;6021;51.182;3.160;2022-08-11T20:08:49;23.70;1.00
11922;DHT22;6021;51.182;3.160;2022-08-11T20:11:41;23.60;1.00